Stanley, Kansas
Current Conditions -  °F | °C
As of 3:54 PM on Saturday 20 Dec 2014 (Local Time) from KMKC Reporting Station
Overcast Overcast  
Wind Chill: 43°   Ceiling: 2300
Heat Index: 47°   Visibility: 9mi
Dew Point: 38°   Wind: 9mph
Humidity: 71%   Direction: 200°SSW
Pressure: 30.12"   Gusts: NA
Location:  39.0186°N, 94.6662°W
Report Text: KMKC 202154Z 20008KT 9SM OVC023 08/03 A3012 RMK AO2 SLP203 T00830033
Loading
Personal Weather Stations






























Interactive Weather Map New forecast layout! Learn more

10-Day Weather Forecast

Advertisements
Track Severe Weather on mobile